Startpagina
METAR-TAF:

METAR-TAF

Vliegvelden :

Yap, Micronesië

breedte: 09-29N, lengte: 138-05E, hoogte: 28 m

Actueel weer

Dit bericht is 57 minuten geleden gemaakt, om 12:52 UTC
Wind 2 kt uit variabele richting
Temperatuur 26°C
Vochtigheid 94%
Druk 1013 hPa
Zicht: 19.3 km
Verspreide wolken op 1600 ft, Stapelwolken.
Gebroken wolken op 30000 ft

METAR: PTYA 231252Z VRB02KT 12SM SCT016TCU BKN300 26/25 A2990 RMK TCU SE-S AND W SLP127 T02640249

Tijdstip: 23:49 (13:49 UTC)

Verwachting

Dit bericht is 2 uur en het 13 minuten geleden gemaakt, om 11:36 UTC
Verwachting geldig van 23 om 12 UTC tot 24 om 12 UTC
Wind 3 kt uit variabele richting
Zicht: 10 km
Weinig wolken op 1600 ft
Verspreide wolken op 13000 ft
buien in de omgeving

TAF: PTYA 231136Z 2312/2412 VRB03KT P6SM VCSH FEW016 SCT130

Waarnemingen en weersverwachtingen van meer dan 4000 vliegvelden (METAR en TAF).

De beschikbare stations zijn de gele en rode punten op de kaart.

Ga met uw muis naar het station om de naam te zien.

Klik dan om waarnemingen en weersverwachtingen te zien.

kaart wijzigen: klik op de groene knoppen met een zwart kruis om in te zoomen, op de groene knop met een streepje om uit te zoomen of op de groene pijlen voor aangrenzende kaarten.


METAR-TAF: